Time;durP1;ratioP1;P1;durP2;ratioP2;P2;SDS_P1;SDS_P2;PMS_P1;PMS_P2;Temp;Humidity;BMP_temperature;BMP_pressure;BME280_temperature;BME280_humidity;BME280_pressure;Samples;Min_cycle;Max_cycle;Signal;HPM_P1;HPM_P2
2021/05/24 00:08:37;;;;;;;11.93;4.90;;;;;;;9.18;64.09;99017.65;512576;1101;103524;-42
2021/05/24 00:40:48;;;;;;;11.57;6.43;;;;;;;8.35;65.05;99029.11;512616;1096;103566;-42
2021/05/24 00:50:52;;;;;;;6.77;4.97;;;;;;;8.11;65.35;99039.23;512633;1101;103534;-42
2021/05/24 01:00:56;;;;;;;7.87;4.10;;;;;;;8.17;66.00;99037.59;512625;1101;103208;-42
2021/05/24 01:11:01;;;;;;;8.20;5.00;;;;;;;8.30;65.84;99034.96;512807;1101;103444;-42
2021/05/24 01:21:08;;;;;;;10.27;6.70;;;;;;;7.97;66.01;99041.05;512705;1101;103171;-44
2021/05/24 01:31:13;;;;;;;16.60;6.70;;;;;;;7.56;66.15;99033.30;512612;1096;103543;-41
2021/05/24 01:41:17;;;;;;;9.57;5.90;;;;;;;7.43;66.85;99053.53;512617;1101;103220;-43
2021/05/24 01:51:21;;;;;;;9.87;4.10;;;;;;;7.57;67.27;99052.53;512548;1101;103192;-42
2021/05/24 02:01:26;;;;;;;7.20;4.47;;;;;;;7.78;67.30;99041.03;513396;1084;104722;-42
2021/05/24 02:11:31;;;;;;;9.10;4.83;;;;;;;7.48;67.50;99043.22;512748;1096;103554;-41
2021/05/24 02:21:35;;;;;;;9.10;5.10;;;;;;;7.22;67.78;99043.96;512579;1096;103596;-42
2021/05/24 02:31:40;;;;;;;8.35;4.60;;;;;;;7.14;67.94;99033.63;512564;1100;104727;-41
2021/05/24 02:41:45;;;;;;;7.80;5.40;;;;;;;7.07;68.40;99042.28;512884;1101;103566;-43
2021/05/24 02:51:49;;;;;;;7.73;5.77;;;;;;;6.95;68.47;99058.83;512582;1096;103193;-42
2021/05/24 03:01:54;;;;;;;15.67;8.03;;;;;;;6.83;68.64;99052.49;512527;1096;103170;-41
2021/05/24 03:11:59;;;;;;;15.70;8.60;;;;;;;6.77;69.21;99062.78;512567;1096;103247;-41
2021/05/24 03:22:03;;;;;;;13.47;8.13;;;;;;;7.06;68.78;99077.48;512666;1101;103177;-42
2021/05/24 03:32:08;;;;;;;16.67;8.93;;;;;;;8.80;69.29;99093.29;512500;1096;103237;-40
2021/05/24 03:42:12;;;;;;;11.57;7.30;;;;;;;11.78;67.40;99087.16;512598;1096;103173;-41
2021/05/24 03:52:18;;;;;;;11.47;7.93;;;;;;;13.51;65.48;99083.89;512613;1096;103165;-42
2021/05/24 04:02:22;;;;;;;13.37;8.20;;;;;;;14.63;64.05;99085.74;512530;1096;103178;-42
2021/05/24 04:12:27;;;;;;;14.63;7.47;;;;;;;15.10;61.70;99082.64;512648;1101;103170;-41
2021/05/24 04:22:31;;;;;;;11.95;6.05;;;;;;;15.75;60.75;99084.45;512323;1101;103202;-41
2021/05/24 04:32:35;;;;;;;13.23;7.40;;;;;;;16.53;58.84;99082.15;512397;1101;103576;-43
2021/05/24 04:42:40;;;;;;;14.00;7.10;;;;;;;16.73;57.65;99084.17;512719;1096;103633;-43
2021/05/24 04:52:44;;;;;;;14.40;8.20;;;;;;;17.37;56.86;99099.98;512611;1101;103216;-41
2021/05/24 05:02:48;;;;;;;12.50;7.53;;;;;;;17.66;55.77;99092.30;512706;1101;103178;-42
2021/05/24 05:12:52;;;;;;;10.93;7.63;;;;;;;17.43;54.45;99112.28;512570;1101;103170;-42
2021/05/24 05:22:56;;;;;;;12.05;7.15;;;;;;;18.02;54.12;99125.30;512585;1095;103174;-42
2021/05/24 05:33:00;;;;;;;12.87;7.33;;;;;;;17.50;52.69;99128.88;512522;1095;103181;-42
2021/05/24 05:43:09;;;;;;;11.40;7.20;;;;;;;17.40;52.29;99147.56;512588;1101;103308;-41
2021/05/24 05:53:14;;;;;;;12.20;7.07;;;;;;;17.59;53.43;99139.88;512580;1096;103104;-44
2021/05/24 06:03:18;;;;;;;16.00;7.97;;;;;;;18.03;50.79;99138.42;512547;1096;103175;-41
2021/05/24 06:13:26;;;;;;;15.50;8.60;;;;;;;17.39;51.78;99140.61;512517;1096;103192;-41
2021/05/24 06:23:30;;;;;;;20.63;9.58;;;;;;;17.75;52.56;99150.41;512430;1101;103544;-42
2021/05/24 06:33:35;;;;;;;8.23;5.83;;;;;;;18.57;49.50;99143.24;512742;1096;103525;-40
2021/05/24 06:43:39;;;;;;;13.10;5.50;;;;;;;18.45;49.31;99161.44;512496;1096;103189;-40
2021/05/24 06:53:47;;;;;;;7.10;4.40;;;;;;;18.82;50.81;99150.48;512759;1101;103170;-40
2021/05/24 07:03:51;;;;;;;9.43;3.70;;;;;;;20.00;50.04;99154.33;512532;1101;104659;-41
2021/05/24 07:13:55;;;;;;;4.40;2.50;;;;;;;19.81;48.46;99151.48;512708;1101;103215;-41
2021/05/24 07:23:59;;;;;;;5.83;1.83;;;;;;;19.56;48.86;99143.56;512391;1101;103534;-41
2021/05/24 07:34:13;;;;;;;7.10;1.90;;;;;;;19.45;46.43;99142.80;512505;1096;103216;-41
2021/05/24 07:44:18;;;;;;;2.45;1.45;;;;;;;19.23;45.46;99145.02;512579;1101;103621;-41
2021/05/24 07:54:22;;;;;;;4.37;1.20;;;;;;;19.58;47.19;99130.67;512517;1101;103547;-40
2021/05/24 08:04:27;;;;;;;4.70;1.30;;;;;;;19.89;46.59;99142.86;512580;1101;103548;-41
2021/05/24 08:14:31;;;;;;;3.50;1.70;;;;;;;19.01;45.06;99132.75;512558;1096;103170;-42
2021/05/24 08:24:36;;;;;;;2.53;1.73;;;;;;;18.80;45.35;99122.35;512495;1096;103531;-42
2021/05/24 08:34:40;;;;;;;4.90;1.60;;;;;;;19.05;45.05;99129.52;512438;1101;104514;-41
2021/05/24 08:44:47;;;;;;;4.47;1.83;;;;;;;18.70;44.70;99101.75;512621;1101;103544;-40
2021/05/24 08:54:53;;;;;;;2.00;1.10;;;;;;;19.41;45.68;99088.11;512584;1101;103170;-42
2021/05/24 09:05:04;;;;;;;3.60;1.23;;;;;;;18.97;44.50;99078.10;512773;1101;103234;-41
2021/05/24 09:15:13;;;;;;;1.37;0.70;;;;;;;18.91;42.88;99083.73;512656;1096;103547;-42
2021/05/24 09:25:17;;;;;;;3.10;1.13;;;;;;;18.87;43.04;99096.07;512556;1096;103177;-42
2021/05/24 09:35:21;;;;;;;5.50;1.50;;;;;;;18.72;43.40;99098.80;512588;1101;103193;-40
2021/05/24 09:45:26;;;;;;;1.87;1.27;;;;;;;18.45;43.11;99077.63;512725;1101;103192;-41
2021/05/24 09:55:31;;;;;;;4.00;1.90;;;;;;;18.39;43.17;99077.64;512540;1096;103161;-42
2021/05/24 10:16:02;;;;;;;5.90;2.13;;;;;;;18.67;42.56;99040.66;512699;1096;103232;-42
2021/05/24 10:26:08;;;;;;;4.57;2.53;;;;;;;18.97;43.85;99029.86;512503;1095;103457;-41
2021/05/24 10:36:21;;;;;;;8.90;3.30;;;;;;;19.33;43.88;99032.36;512504;1096;104594;-41
2021/05/24 10:46:32;;;;;;;3.00;1.33;;;;;;;19.39;43.16;99019.71;512416;1096;103335;-41
2021/05/24 10:56:43;;;;;;;2.50;1.60;;;;;;;19.54;42.85;98993.64;512595;1101;103189;-43
2021/05/24 11:07:05;;;;;;;4.10;1.53;;;;;;;19.67;40.18;99002.14;512550;1101;103164;-42
2021/05/24 11:17:10;;;;;;;2.93;1.20;;;;;;;19.38;41.15;98976.01;512671;1101;104021;-42
2021/05/24 11:27:16;;;;;;;1.35;0.90;;;;;;;19.30;41.76;98982.77;512741;1096;103595;-42
2021/05/24 11:37:45;;;;;;;3.97;1.10;;;;;;;19.57;41.13;98962.77;512506;1101;103188;-41
2021/05/24 11:47:55;;;;;;;6.97;1.80;;;;;;;19.47;41.51;98941.38;512758;1101;103529;-43
2021/05/24 11:57:59;;;;;;;2.20;1.47;;;;;;;19.76;39.81;98922.65;512531;1101;103194;-44
2021/05/24 12:08:03;;;;;;;3.40;1.40;;;;;;;20.11;40.58;98911.58;512665;1101;103632;-41
2021/05/24 12:18:08;;;;;;;2.33;1.33;;;;;;;20.10;39.59;98896.52;512428;1101;103158;-42
2021/05/24 12:28:12;;;;;;;1.57;0.80;;;;;;;20.27;39.84;98882.65;512655;1101;104516;-41
2021/05/24 12:38:25;;;;;;;4.60;0.87;;;;;;;20.11;37.37;98862.42;512696;1096;103162;-42
2021/05/24 12:48:31;;;;;;;1.73;0.90;;;;;;;20.46;38.52;98845.13;512563;1096;103205;-42
2021/05/24 12:58:37;;;;;;;4.40;1.47;;;;;;;21.04;39.44;98845.61;512573;1096;103170;-41
2021/05/24 13:08:50;;;;;;;2.37;1.23;;;;;;;21.00;38.01;98830.37;512561;1101;103188;-42
2021/05/24 13:39:56;;;;;;;12.33;1.33;;;;;;;21.05;37.90;98819.53;512596;1096;104205;-41
2021/05/24 13:50:01;;;;;;;3.25;1.10;;;;;;;20.98;37.56;98797.61;512731;1095;103170;-41
2021/05/24 14:00:07;;;;;;;2.10;1.13;;;;;;;21.00;38.07;98800.80;512618;1101;103217;-42
2021/05/24 14:10:15;;;;;;;2.55;1.50;;;;;;;20.44;36.71;98789.01;512597;1101;103167;-41
2021/05/24 14:20:19;;;;;;;1.33;1.10;;;;;;;20.15;36.92;98782.94;512440;1101;103560;-41
2021/05/24 14:30:26;;;;;;;4.93;1.30;;;;;;;20.27;37.84;98758.34;512512;1101;103110;-41
2021/05/24 14:40:30;;;;;;;1.87;1.20;;;;;;;20.37;38.25;98744.78;512628;1101;103234;-43
2021/05/24 15:00:53;;;;;;;6.07;1.70;;;;;;;20.28;38.36;98717.77;512471;1100;103241;-40
2021/05/24 15:10:57;;;;;;;10.03;2.33;;;;;;;20.56;39.67;98689.16;512550;1096;103253;-39
2021/05/24 15:21:01;;;;;;;3.40;1.60;;;;;;;20.51;39.43;98673.94;512689;1096;103200;-41
2021/05/24 15:31:05;;;;;;;4.93;2.23;;;;;;;20.18;39.29;98654.29;512502;1095;103191;-41
2021/05/24 15:41:11;;;;;;;4.60;1.47;;;;;;;20.03;39.56;98648.34;512710;1101;103173;-42
2021/05/24 15:51:15;;;;;;;5.75;1.70;;;;;;;19.78;39.33;98633.39;512639;1096;103554;-40
2021/05/24 16:01:20;;;;;;;3.17;2.10;;;;;;;19.56;39.96;98612.49;512671;1101;103493;-42
2021/05/24 16:11:24;;;;;;;4.50;2.03;;;;;;;19.41;40.19;98612.67;512749;1101;103548;-41
2021/05/24 16:21:29;;;;;;;7.60;2.77;;;;;;;19.38;41.03;98587.21;512598;1101;103595;-42
2021/05/24 16:31:33;;;;;;;7.30;4.23;;;;;;;19.23;41.19;98571.34;512683;1096;103170;-42
2021/05/24 16:41:40;;;;;;;5.07;3.20;;;;;;;19.22;41.50;98551.78;512596;1096;103268;-41
2021/05/24 16:51:44;;;;;;;5.73;2.93;;;;;;;19.25;41.56;98547.72;512577;1096;103105;-41
2021/05/24 17:01:48;;;;;;;5.63;2.70;;;;;;;19.16;41.93;98541.38;512655;1096;103175;-41
2021/05/24 17:11:53;;;;;;;4.60;2.63;;;;;;;18.90;42.78;98519.47;512449;1101;103485;-42
2021/05/24 17:21:58;;;;;;;16.30;2.85;;;;;;;18.57;44.52;98518.48;512719;1101;103237;-41
2021/05/24 17:32:03;;;;;;;6.63;2.07;;;;;;;18.34;46.49;98504.78;512649;1101;104609;-41
2021/05/24 17:42:11;;;;;;;9.37;2.50;;;;;;;18.17;47.46;98503.61;512577;1101;103189;-46
2021/05/24 17:52:16;;;;;;;5.13;2.43;;;;;;;18.01;47.82;98501.09;512570;1101;103165;-39
2021/05/24 18:02:20;;;;;;;4.40;2.17;;;;;;;17.93;47.95;98511.58;512440;1096;103165;-42
2021/05/24 18:12:24;;;;;;;7.67;3.63;;;;;;;17.92;48.16;98500.08;512518;1101;103548;-43
2021/05/24 18:22:29;;;;;;;11.47;3.70;;;;;;;17.82;48.50;98497.50;512704;1101;103259;-41
2021/05/24 18:32:34;;;;;;;8.03;4.40;;;;;;;17.57;48.07;98493.11;512491;1094;103196;-40
2021/05/24 18:42:39;;;;;;;10.70;5.67;;;;;;;17.24;48.40;98459.10;512511;1096;103170;-41
2021/05/24 18:52:44;;;;;;;9.07;4.83;;;;;;;17.01;48.37;98471.25;512548;1101;103566;-41
2021/05/24 19:03:00;;;;;;;9.23;4.83;;;;;;;17.02;48.47;98494.22;512490;1101;103742;-42
2021/05/24 19:13:04;;;;;;;12.97;6.47;;;;;;;16.85;49.32;98500.72;512642;1094;103529;-43
2021/05/24 19:23:09;;;;;;;14.87;6.40;;;;;;;16.54;49.39;98515.98;512631;1101;103178;-42
2021/05/24 19:33:13;;;;;;;13.33;6.77;;;;;;;16.10;50.55;98488.34;512605;1101;103187;-42
2021/05/24 19:43:18;;;;;;;11.73;7.17;;;;;;;15.91;52.26;98496.88;512724;1101;103190;-41
2021/05/24 20:24:30;;;;;;;18.80;10.87;;;;;;;15.40;55.16;98498.69;512601;1101;103480;-41
2021/05/24 20:34:35;;;;;;;18.43;10.10;;;;;;;15.25;55.07;98502.10;512481;1101;103456;-40
2021/05/24 20:44:39;;;;;;;25.40;12.47;;;;;;;15.18;55.11;98522.06;512720;1101;103162;-40
2021/05/24 20:54:43;;;;;;;21.93;9.43;;;;;;;15.14;55.36;98521.80;512610;1101;103528;-39
2021/05/24 21:04:47;;;;;;;10.97;7.00;;;;;;;14.90;55.62;98512.63;512545;1096;104584;-40
2021/05/24 21:14:52;;;;;;;7.17;4.63;;;;;;;14.69;55.89;98493.13;512693;1101;103712;-43
2021/05/24 21:24:56;;;;;;;8.00;4.60;;;;;;;14.23;56.46;98486.73;512412;1101;103231;-40
2021/05/24 21:45:24;;;;;;;8.10;4.33;;;;;;;13.57;59.36;98443.71;512512;1101;103197;-42
2021/05/24 21:55:27;;;;;;;6.33;3.73;;;;;;;13.37;59.60;98401.84;512809;1101;103213;-42
2021/05/24 22:05:32;;;;;;;6.13;3.70;;;;;;;13.42;59.95;98373.46;512587;1094;103432;-42
2021/05/24 22:15:37;;;;;;;9.37;5.93;;;;;;;13.61;60.53;98381.05;512740;1096;103177;-41
2021/05/24 22:25:43;;;;;;;13.55;6.50;;;;;;;13.65;61.23;98396.22;512470;1101;103476;-41
2021/05/24 22:35:48;;;;;;;8.87;4.50;;;;;;;13.67;60.92;98380.81;512628;1101;104618;-40
2021/05/24 22:45:51;;;;;;;6.50;3.93;;;;;;;13.57;61.00;98367.47;512586;1101;103228;-42
2021/05/24 22:55:55;;;;;;;5.20;3.10;;;;;;;13.55;61.48;98363.47;512506;1101;104541;-44
2021/05/24 23:06:00;;;;;;;3.67;2.73;;;;;;;13.63;61.12;98350.50;512431;1095;103497;-42
2021/05/24 23:16:03;;;;;;;6.45;3.00;;;;;;;13.70;61.54;98358.24;512646;1101;103537;-41
2021/05/24 23:26:09;;;;;;;7.60;3.90;;;;;;;13.73;61.57;98349.78;512466;1101;103289;-44
2021/05/24 23:36:14;;;;;;;8.27;3.80;;;;;;;13.58;61.80;98310.63;512553;1101;103541;-43
2021/05/24 23:46:18;;;;;;;8.47;4.20;;;;;;;13.40;61.91;98260.58;512653;1101;104580;-42
2021/05/24 23:56:22;;;;;;;6.77;3.97;;;;;;;13.50;62.07;98226.13;512472;1101;103107;-41
